Time;durP1;ratioP1;P1;durP2;ratioP2;P2;SDS_P1;SDS_P2;PMS_P1;PMS_P2;Temp;Humidity;BMP_temperature;BMP_pressure;BME280_temperature;BME280_humidity;BME280_pressure;Samples;Min_cycle;Max_cycle;Signal;HPM_P1;HPM_P2
2023/11/08 00:00:09;;;;;;;13.32;5.35;;;11.60;99.90;;;11.81;100.00;100830.97;5012782;28;20092;-62
2023/11/08 00:02:41;;;;;;;14.07;5.40;;;11.70;99.90;;;11.74;100.00;100821.34;5012704;28;20081;-62
2023/11/08 00:05:10;;;;;;;13.00;5.40;;;11.70;99.90;;;12.02;100.00;100856.41;4998674;28;20514;-62
2023/11/08 00:07:40;;;;;;;16.00;5.53;;;11.70;99.90;;;11.97;100.00;100860.88;5016665;28;20562;-62
2023/11/08 00:10:12;;;;;;;13.07;5.38;;;11.70;99.90;;;11.99;100.00;100861.72;5016722;28;20595;-63
2023/11/08 00:12:42;;;;;;;12.15;4.88;;;11.70;99.90;;;12.01;100.00;100855.53;5016820;28;20050;-63
2023/11/08 00:15:12;;;;;;;9.30;5.10;;;11.80;99.90;;;12.03;100.00;100864.34;5016463;28;20046;-63
2023/11/08 00:17:41;;;;;;;9.98;4.90;;;11.70;99.90;;;12.06;100.00;100871.41;5016811;28;20074;-63
2023/11/08 00:20:11;;;;;;;9.40;4.70;;;11.80;99.90;;;12.03;100.00;100874.06;5016419;28;20038;-64
2023/11/08 00:22:43;;;;;;;10.43;4.35;;;11.80;99.90;;;11.99;100.00;100873.22;5016351;28;20488;-64
2023/11/08 00:25:11;;;;;;;10.70;5.10;;;11.70;99.90;;;12.10;100.00;100873.97;5016416;28;20069;-63
2023/11/08 00:27:40;;;;;;;13.27;5.30;;;11.80;99.90;;;12.17;100.00;100877.44;5016193;28;20073;-63
2023/11/08 00:30:11;;;;;;;9.35;4.72;;;11.90;99.90;;;12.15;100.00;100871.28;5016160;28;20495;-64
2023/11/08 00:32:41;;;;;;;8.60;4.35;;;11.90;99.90;;;12.14;100.00;100866.84;5015199;28;20042;-63
2023/11/08 00:35:10;;;;;;;11.38;5.13;;;11.90;99.90;;;12.24;100.00;100881.78;4998854;28;20475;-63
2023/11/08 00:37:38;;;;;;;13.80;4.72;;;11.90;99.90;;;12.27;100.00;100879.97;4998499;28;20470;-64
2023/11/08 00:40:08;;;;;;;12.63;4.95;;;12.00;99.90;;;12.29;100.00;100879.97;5015916;28;20057;-63
2023/11/08 00:42:37;;;;;;;11.80;5.30;;;12.00;99.90;;;12.24;100.00;100890.63;5016260;28;20057;-63
2023/11/08 00:45:08;;;;;;;14.40;4.93;;;12.00;99.90;;;12.27;100.00;100882.63;5015975;28;20430;-63
2023/11/08 00:47:38;;;;;;;10.13;4.60;;;12.00;99.90;;;12.21;100.00;100882.72;5015865;28;20128;-63
2023/11/08 00:50:07;;;;;;;;;;;12.00;99.90;;;12.20;100.00;100880.94;5016265;28;20513;-63
2023/11/08 00:52:36;;;;;;;13.95;4.88;;;11.90;99.90;;;12.16;100.00;100895.13;4998060;28;19925;-63
2023/11/08 00:55:06;;;;;;;14.65;5.72;;;11.90;99.90;;;12.12;100.00;100892.50;5014710;28;20080;-64
2023/11/08 00:57:34;;;;;;;11.18;5.60;;;11.90;99.90;;;12.10;100.00;100896.97;5015892;28;20053;-65
2023/11/08 01:00:07;;;;;;;14.82;6.25;;;11.80;99.90;;;12.05;100.00;100907.63;5015743;28;20113;-64
2023/11/08 01:02:37;;;;;;;12.80;6.40;;;11.80;99.90;;;11.91;100.00;100877.72;5014726;28;20388;-64
2023/11/08 01:05:10;;;;;;;12.23;6.65;;;11.80;99.90;;;12.07;100.00;100897.00;5015657;28;20104;-63
2023/11/08 01:07:38;;;;;;;13.55;6.47;;;11.80;99.90;;;12.09;100.00;100896.09;4997904;28;20042;-63
2023/11/08 01:10:08;;;;;;;17.38;6.40;;;11.80;99.90;;;12.13;100.00;100908.44;4998127;28;20053;-63
2023/11/08 01:12:36;;;;;;;15.77;7.00;;;11.80;99.90;;;12.04;100.00;100924.41;4997776;28;20050;-64
2023/11/08 01:15:08;;;;;;;14.77;6.65;;;11.80;99.90;;;12.09;100.00;100935.88;4997005;28;20049;-63
2023/11/08 01:17:38;;;;;;;13.75;6.05;;;11.80;99.90;;;12.16;100.00;100916.34;4997751;28;20181;-64
2023/11/08 01:20:08;;;;;;;11.77;6.13;;;11.80;99.90;;;12.13;100.00;100915.50;5015764;28;20042;-64
2023/11/08 01:22:37;;;;;;;15.90;6.18;;;11.90;99.90;;;12.18;100.00;100925.16;4998088;28;20054;-64
2023/11/08 01:25:06;;;;;;;15.52;6.57;;;11.90;99.90;;;12.27;100.00;100929.50;5015359;28;20045;-63
2023/11/08 01:27:35;;;;;;;10.48;5.53;;;11.90;99.90;;;12.31;100.00;100928.59;5015269;28;20042;-64
2023/11/08 01:30:04;;;;;;;16.08;5.82;;;12.00;99.90;;;12.24;100.00;100934.81;5015610;28;20384;-63
2023/11/08 01:32:33;;;;;;;15.45;6.18;;;12.00;99.90;;;12.11;100.00;100911.97;4997794;28;20057;-64
2023/11/08 01:35:04;;;;;;;11.82;5.60;;;12.00;99.90;;;12.24;100.00;100940.13;5015231;28;20046;-63
2023/11/08 01:37:34;;;;;;;13.05;6.38;;;12.00;99.90;;;11.51;100.00;100795.06;5014955;28;20046;-63
2023/11/08 01:40:04;;;;;;;13.75;5.22;;;12.00;99.90;;;12.27;100.00;100934.81;5015156;28;20045;-63
2023/11/08 01:42:33;;;;;;;13.90;5.82;;;12.00;99.90;;;12.26;100.00;100939.22;5015404;28;20104;-65
2023/11/08 01:45:04;;;;;;;12.80;5.53;;;12.00;99.90;;;12.13;100.00;100920.81;5014994;28;20459;-63
2023/11/08 01:47:35;;;;;;;12.57;5.95;;;12.00;99.90;;;12.34;100.00;100931.19;4997214;28;20148;-63
2023/11/08 01:50:06;;;;;;;;;;;12.10;99.90;;;12.38;100.00;100932.91;5015236;28;20514;-65
2023/11/08 01:52:36;;;;;;;15.77;5.32;;;12.10;99.90;;;12.37;100.00;100934.69;5015010;28;19933;-64
2023/11/08 01:58:17;;;;;;;14.93;5.40;;;12.10;99.90;;;12.38;100.00;100938.22;5483045;24;20062;-63
2023/11/08 02:00:50;;;;;;;15.77;4.95;;;12.10;99.90;;;12.35;100.00;100927.66;4820855;29;20115;-63
2023/11/08 02:03:19;;;;;;;11.75;5.47;;;12.10;99.90;;;12.34;100.00;100920.56;4807242;29;20082;-64
2023/11/08 02:05:49;;;;;;;11.88;5.35;;;12.10;99.90;;;12.38;100.00;100928.50;4820933;29;20280;-64
2023/11/08 02:08:18;;;;;;;15.27;5.60;;;12.10;99.90;;;12.38;100.00;100936.44;4807432;29;20508;-64
2023/11/08 02:10:47;;;;;;;14.73;5.65;;;12.10;99.90;;;12.36;100.00;100940.00;4821010;29;20046;-63
2023/11/08 02:13:16;;;;;;;15.70;6.68;;;12.10;99.90;;;12.31;100.00;100925.94;4806825;29;20062;-63
2023/11/08 02:15:45;;;;;;;15.90;6.10;;;12.10;99.90;;;12.21;100.00;100934.88;4805626;29;20051;-64
2023/11/08 02:18:13;;;;;;;14.05;6.05;;;12.00;99.90;;;12.12;100.00;100941.13;4806775;29;20047;-63
2023/11/08 02:20:42;;;;;;;11.73;6.28;;;11.90;99.90;;;12.11;100.00;100933.19;4806904;29;20054;-63
2023/11/08 02:23:12;;;;;;;18.52;6.45;;;11.80;99.90;;;12.03;100.00;100932.38;4806996;29;20392;-63
2023/11/08 02:25:43;;;;;;;13.73;6.80;;;11.80;99.90;;;12.09;100.00;100937.63;4820518;29;20141;-63
2023/11/08 02:28:12;;;;;;;18.63;7.03;;;11.80;99.90;;;12.17;100.00;100936.69;4806722;29;20844;-64
2023/11/08 02:30:40;;;;;;;16.65;6.35;;;11.80;99.90;;;12.11;100.00;100935.84;4806594;29;20054;-64
2023/11/08 02:33:09;;;;;;;14.10;6.80;;;11.80;99.90;;;12.04;100.00;100935.00;4820370;29;20051;-64
2023/11/08 02:35:38;;;;;;;16.77;6.72;;;11.80;99.90;;;12.13;100.00;100939.38;4806591;29;20046;-64
2023/11/08 02:38:11;;;;;;;18.67;7.03;;;11.80;99.90;;;12.16;100.00;100932.25;4806513;29;20077;-64
2023/11/08 02:40:41;;;;;;;13.30;6.40;;;11.80;99.90;;;12.09;100.00;100940.28;4806493;29;20500;-64
2023/11/08 02:43:10;;;;;;;17.50;5.85;;;11.80;99.90;;;11.97;100.00;100938.63;4806523;29;20051;-64
2023/11/08 02:45:40;;;;;;;16.02;6.07;;;11.80;99.90;;;11.98;100.00;100928.91;4806602;29;20573;-63
2023/11/08 02:48:08;;;;;;;16.30;6.35;;;11.80;99.90;;;12.00;100.00;100930.63;4820318;29;20062;-64
2023/11/08 02:50:39;;;;;;;10.65;5.80;;;11.70;99.90;;;11.27;100.00;100808.50;4820375;29;20073;-64
2023/11/08 02:53:08;;;;;;;15.65;6.80;;;11.70;99.90;;;11.99;100.00;100920.94;4805026;29;20058;-63
2023/11/08 02:55:37;;;;;;;19.40;7.07;;;11.70;99.90;;;12.03;100.00;100925.31;4806210;29;20046;-63
2023/11/08 02:58:07;;;;;;;19.95;6.80;;;11.70;99.90;;;12.00;100.00;100917.38;4806226;29;20066;-64
2023/11/08 03:00:36;;;;;;;19.80;7.07;;;11.70;99.90;;;12.04;100.00;100923.56;4820453;29;20058;-64
2023/11/08 03:03:04;;;;;;;15.18;6.68;;;11.70;99.90;;;12.00;100.00;100921.81;4820249;29;20074;-66
2023/11/08 03:05:34;;;;;;;18.85;8.40;;;11.70;99.90;;;11.74;100.00;100879.66;4806467;29;20047;-64
2023/11/08 03:08:05;;;;;;;14.95;6.93;;;11.70;99.90;;;12.01;100.00;100918.25;4806055;29;20111;-64
2023/11/08 03:10:35;;;;;;;12.40;6.10;;;11.70;99.90;;;12.03;100.00;100929.72;4804732;29;20141;-64
2023/11/08 03:13:04;;;;;;;19.13;6.15;;;11.70;99.90;;;12.01;100.00;100929.75;4820130;29;20142;-64
2023/11/08 03:15:34;;;;;;;16.35;6.50;;;11.70;99.90;;;12.03;100.00;100924.44;4820117;29;20497;-64
2023/11/08 03:18:03;;;;;;;16.03;6.00;;;11.70;99.90;;;11.89;100.00;100889.22;4806001;29;20465;-64
2023/11/08 03:20:32;;;;;;;18.10;6.13;;;11.70;99.90;;;12.04;100.00;100927.06;4805949;29;20123;-64
2023/11/08 03:23:00;;;;;;;15.68;6.30;;;11.80;99.90;;;12.07;100.00;100929.69;4820009;29;20051;-64
2023/11/08 03:25:29;;;;;;;19.63;6.88;;;11.80;99.90;;;12.10;100.00;100920.84;4820049;29;20066;-64
2023/11/08 03:27:57;;;;;;;13.25;6.35;;;11.80;99.90;;;11.94;100.00;100933.38;4805734;29;20113;-64
2023/11/08 03:30:26;;;;;;;14.23;6.32;;;11.70;99.90;;;12.00;100.00;100927.97;4805784;29;20115;-64
2023/11/08 03:32:58;;;;;;;18.50;7.65;;;11.70;99.90;;;11.84;100.00;100913.13;4805761;29;20463;-64
2023/11/08 03:35:26;;;;;;;16.60;7.68;;;11.70;99.90;;;11.88;100.00;100924.56;4805690;29;20051;-64
2023/11/08 03:37:55;;;;;;;21.80;7.65;;;11.60;99.90;;;11.96;100.00;100925.38;4805617;29;20476;-65
2023/11/08 03:40:27;;;;;;;21.92;7.28;;;11.70;99.90;;;11.95;100.00;100931.56;4805764;29;20462;-64
2023/11/08 03:42:56;;;;;;;17.30;6.63;;;11.70;99.90;;;11.90;100.00;100934.28;4805712;29;20497;-64
2023/11/08 03:45:24;;;;;;;11.50;6.15;;;11.60;99.90;;;11.92;100.00;100943.09;4805619;29;20047;-63
2023/11/08 03:47:53;;;;;;;19.35;6.70;;;11.60;99.90;;;11.82;100.00;100936.13;4805506;29;20051;-64
2023/11/08 03:50:23;;;;;;;14.60;5.75;;;11.60;99.90;;;11.94;100.00;100937.78;4805627;29;20127;-65
2023/11/08 03:52:51;;;;;;;14.90;5.68;;;11.70;99.90;;;11.78;100.00;100929.97;4805592;29;20535;-64
2023/11/08 03:55:19;;;;;;;11.18;5.78;;;11.60;99.90;;;11.74;100.00;100933.53;4805705;29;20074;-64
2023/11/08 03:57:48;;;;;;;10.68;6.13;;;11.50;99.90;;;11.79;100.00;100941.41;4805268;29;20505;-64
2023/11/08 04:00:18;;;;;;;12.93;5.72;;;11.50;99.90;;;11.71;100.00;100930.88;4819808;29;20063;-65
2023/11/08 04:02:46;;;;;;;14.30;5.70;;;11.50;99.90;;;11.54;100.00;100908.91;4805461;29;20527;-64
2023/11/08 04:05:15;;;;;;;19.17;6.45;;;11.40;99.90;;;11.63;100.00;100930.03;4819578;29;20143;-64
2023/11/08 04:07:45;;;;;;;13.65;6.32;;;11.40;99.90;;;11.56;100.00;100933.63;4805415;29;20053;-63
2023/11/08 04:10:14;;;;;;;19.80;7.30;;;11.30;99.90;;;11.51;100.00;100918.66;4805438;29;20050;-64
2023/11/08 04:12:43;;;;;;;14.93;6.68;;;11.30;99.90;;;11.60;100.00;100932.72;4805366;29;20557;-64
2023/11/08 04:15:11;;;;;;;14.45;7.07;;;11.30;99.90;;;11.66;100.00;100938.00;4805204;29;20117;-64
2023/11/08 04:17:40;;;;;;;16.50;7.15;;;11.40;99.90;;;11.51;100.00;100935.44;4805339;29;20055;-64
2023/11/08 04:20:12;;;;;;;18.35;7.07;;;11.30;99.90;;;11.44;100.00;100941.66;4805288;29;20050;-64
2023/11/08 04:22:42;;;;;;;16.77;7.20;;;11.20;99.90;;;11.43;100.00;100934.63;4805337;29;20043;-64
2023/11/08 04:25:12;;;;;;;19.27;7.03;;;11.20;99.90;;;11.51;100.00;100935.44;4819553;29;20153;-64
2023/11/08 04:27:40;;;;;;;17.25;6.90;;;11.20;99.90;;;11.49;100.00;100938.97;4805248;29;20047;-65
2023/11/08 04:30:11;;;;;;;15.27;6.25;;;11.20;99.90;;;11.44;100.00;100935.50;4819342;29;20058;-64
2023/11/08 04:32:39;;;;;;;13.38;6.28;;;11.20;99.90;;;11.32;100.00;100939.13;4805277;29;20051;-65
2023/11/08 04:35:09;;;;;;;16.42;6.18;;;11.10;99.90;;;11.42;100.00;100947.88;4819292;29;20055;-64
2023/11/08 04:37:37;;;;;;;13.32;5.78;;;11.20;99.90;;;11.33;100.00;100937.31;4805399;29;20046;-64
2023/11/08 04:40:08;;;;;;;18.90;6.05;;;11.10;99.90;;;11.36;100.00;100953.22;4805100;29;20051;-64
2023/11/08 04:42:38;;;;;;;14.45;6.07;;;11.10;99.90;;;11.34;100.00;100963.78;4805203;29;20051;-64
2023/11/08 04:45:08;;;;;;;13.88;5.82;;;11.10;99.90;;;11.40;100.00;100952.31;4805502;29;20112;-64
2023/11/08 04:47:37;;;;;;;13.23;4.85;;;11.10;99.90;;;11.39;100.00;100967.31;4804406;29;20066;-64
2023/11/08 04:50:07;;;;;;;16.27;5.47;;;11.10;99.90;;;11.38;100.00;100965.53;4805086;29;20457;-64
2023/11/08 04:52:35;;;;;;;13.60;5.40;;;11.10;99.90;;;11.44;100.00;100968.13;4808239;29;20054;-64
2023/11/08 04:55:05;;;;;;;13.90;5.90;;;11.10;99.90;;;11.42;100.00;100950.53;4808579;29;20059;-64
2023/11/08 04:57:33;;;;;;;14.60;5.50;;;11.20;99.90;;;11.47;100.00;100949.59;4808408;29;20420;-63
2023/11/08 05:00:05;;;;;;;12.90;5.47;;;11.20;99.90;;;11.46;100.00;100942.53;4808350;29;20054;-64
2023/11/08 05:02:34;;;;;;;17.85;5.32;;;11.20;99.90;;;11.43;100.00;100950.50;4808280;29;20129;-63
2023/11/08 05:05:03;;;;;;;17.20;5.40;;;11.20;99.90;;;11.46;100.00;100952.22;4821930;29;20538;-64
2023/11/08 05:07:32;;;;;;;12.27;4.80;;;11.20;99.90;;;11.47;100.00;100951.34;4808083;29;20074;-64
2023/11/08 05:10:00;;;;;;;14.95;5.13;;;11.20;99.90;;;11.39;100.00;100958.47;4807998;29;20059;-64
2023/11/08 05:12:29;;;;;;;14.70;4.70;;;11.20;99.90;;;11.33;100.00;100950.56;4808053;29;20445;-64
2023/11/08 05:14:58;;;;;;;12.23;5.13;;;11.20;99.90;;;11.37;100.00;100963.78;4807912;29;20042;-64
2023/11/08 05:17:28;;;;;;;22.23;5.60;;;11.10;99.90;;;11.35;100.00;100960.25;4808014;29;20059;-65
2023/11/08 05:19:56;;;;;;;17.90;5.07;;;11.10;99.90;;;11.36;100.00;100966.44;4808316;29;20070;-63
2023/11/08 05:22:24;;;;;;;11.18;4.72;;;11.10;99.90;;;11.28;100.00;100952.38;4807997;29;20296;-64
2023/11/08 05:24:53;;;;;;;12.73;4.75;;;11.00;99.90;;;11.25;100.00;100953.25;4807735;29;20130;-64
2023/11/08 05:27:22;;;;;;;19.40;5.18;;;11.00;99.90;;;11.25;100.00;100961.19;4807799;29;20047;-64
2023/11/08 05:29:51;;;;;;;14.70;4.78;;;11.00;99.90;;;11.10;100.00;100926.88;4807717;29;20054;-64
2023/11/08 05:32:21;;;;;;;12.13;5.13;;;11.00;99.90;;;11.26;100.00;100954.16;4807648;29;20050;-64
2023/11/08 05:34:51;;;;;;;16.20;4.73;;;11.00;99.90;;;11.29;100.00;100955.00;4808052;29;20489;-64
2023/11/08 05:37:20;;;;;;;12.07;4.65;;;11.00;99.90;;;11.34;100.00;100947.91;4807926;29;20300;-64
2023/11/08 05:39:48;;;;;;;18.45;5.35;;;11.10;99.90;;;11.35;100.00;100965.56;4807504;29;20055;-64
2023/11/08 05:42:22;;;;;;;15.00;4.65;;;11.10;99.90;;;11.36;100.00;100954.06;4807450;29;20050;-64
2023/11/08 05:44:52;;;;;;;14.13;4.93;;;11.10;99.90;;;11.38;100.00;100943.50;4807419;29;20093;-65
2023/11/08 05:47:22;;;;;;;16.52;5.03;;;11.10;99.90;;;11.36;100.00;100945.25;4807544;29;20057;-64
2023/11/08 05:49:51;;;;;;;16.15;5.60;;;11.10;99.90;;;11.37;100.00;100939.94;4807779;29;20051;-64
2023/11/08 05:52:20;;;;;;;12.88;4.53;;;11.10;99.90;;;11.36;100.00;100953.22;4821311;29;20086;-64
2023/11/08 05:54:52;;;;;;;13.02;4.65;;;11.10;99.90;;;11.38;100.00;100940.84;4807324;29;20047;-65
2023/11/08 05:57:21;;;;;;;17.92;5.18;;;11.10;99.90;;;11.36;100.00;100948.75;4807211;29;20113;-64
2023/11/08 05:59:51;;;;;;;10.80;5.00;;;11.10;99.90;;;11.34;100.00;100942.59;4807048;29;20062;-64
2023/11/08 06:02:20;;;;;;;16.52;5.05;;;11.10;99.90;;;11.34;100.00;100939.94;4807302;29;20051;-64
2023/11/08 06:04:50;;;;;;;14.75;4.97;;;11.10;99.90;;;11.34;100.00;100939.09;4807104;29;20127;-64
2023/11/08 06:07:18;;;;;;;10.77;4.70;;;11.10;99.90;;;11.18;100.00;100903.88;4807144;29;20050;-64
2023/11/08 06:09:47;;;;;;;12.85;4.63;;;11.10;99.90;;;11.36;100.00;100934.66;4806935;29;20446;-64
2023/11/08 06:12:15;;;;;;;12.38;4.55;;;11.10;99.90;;;11.32;100.00;100931.16;4807025;29;20057;-62
2023/11/08 06:14:45;;;;;;;10.57;4.40;;;11.10;99.90;;;11.29;100.00;100935.56;4820559;29;20088;-64
2023/11/08 06:17:13;;;;;;;11.43;4.40;;;11.10;99.90;;;11.25;100.00;100925.88;4807167;29;20421;-64
2023/11/08 06:19:41;;;;;;;9.57;4.15;;;11.00;99.90;;;11.15;100.00;100935.66;4807120;29;20062;-65
2023/11/08 06:22:11;;;;;;;14.65;4.20;;;10.90;99.90;;;11.18;100.00;100946.25;4806830;29;20447;-64
2023/11/08 06:24:39;;;;;;;10.07;4.30;;;11.00;99.90;;;11.19;100.00;100945.34;4806775;29;20050;-63
2023/11/08 06:27:08;;;;;;;11.48;4.28;;;10.90;99.90;;;11.19;100.00;100941.84;4806715;29;20051;-63
2023/11/08 06:29:39;;;;;;;10.23;4.20;;;11.00;99.90;;;11.19;99.96;100934.75;4806596;29;20126;-62
2023/11/08 06:32:08;;;;;;;9.32;4.38;;;11.00;99.90;;;11.10;100.00;100933.94;4806546;29;20047;-63
2023/11/08 06:34:40;;;;;;;10.82;4.20;;;10.90;99.90;;;10.95;100.00;100918.13;4820437;29;20142;-62
2023/11/08 06:37:10;;;;;;;8.45;3.95;;;10.90;99.90;;;11.11;99.97;100939.22;4805519;29;20063;-63
2023/11/08 06:39:39;;;;;;;6.10;3.78;;;10.90;99.90;;;11.00;99.95;100937.50;4820512;29;20505;-62
2023/11/08 06:42:07;;;;;;;8.32;4.03;;;10.80;99.90;;;11.03;99.92;100937.50;4806372;29;20126;-62
2023/11/08 06:44:35;;;;;;;10.80;4.03;;;10.80;99.90;;;10.99;100.00;100943.69;4806903;29;20055;-63
2023/11/08 06:47:04;;;;;;;5.10;3.50;;;10.70;99.90;;;10.99;100.00;100939.28;4806331;29;20084;-63
2023/11/08 06:49:32;;;;;;;6.78;3.78;;;10.70;99.90;;;11.00;99.71;100937.50;4805255;29;20046;-63
2023/11/08 06:52:01;;;;;;;9.52;3.47;;;10.80;99.90;;;10.98;99.79;100934.00;4806432;29;20062;-63
2023/11/08 06:54:31;;;;;;;7.22;3.50;;;10.80;99.90;;;11.00;99.93;100942.81;4820154;29;20569;-63
2023/11/08 06:57:00;;;;;;;9.00;3.88;;;10.80;99.90;;;10.93;100.00;100939.31;4806280;29;20047;-62
2023/11/08 06:59:28;;;;;;;5.88;4.13;;;10.70;99.90;;;10.93;100.00;100936.69;4802533;29;20055;-62
2023/11/08 07:01:56;;;;;;;9.30;3.97;;;10.70;99.90;;;10.96;100.00;100941.94;4805922;29;20058;-62
2023/11/08 07:04:25;;;;;;;8.18;4.35;;;10.70;99.90;;;10.94;100.00;100940.22;4806304;29;20058;-62
2023/11/08 07:06:53;;;;;;;7.25;4.15;;;10.70;99.90;;;10.95;100.00;100929.63;4819951;29;20429;-62
2023/11/08 07:09:21;;;;;;;7.80;4.10;;;10.70;99.90;;;10.87;100.00;100931.41;4806473;29;20054;-62
2023/11/08 07:11:52;;;;;;;9.18;4.32;;;10.70;99.90;;;10.89;100.00;100940.22;4819987;29;20467;-63
2023/11/08 07:14:21;;;;;;;8.13;4.35;;;10.60;99.90;;;10.87;100.00;100937.59;4805621;29;20062;-63
2023/11/08 07:16:49;;;;;;;8.20;4.20;;;10.60;99.90;;;10.99;100.00;100939.28;4805758;29;20099;-63
2023/11/08 07:19:18;;;;;;;5.53;3.88;;;10.70;99.90;;;11.14;100.00;100944.50;4806044;29;20051;-63
2023/11/08 07:21:47;;;;;;;7.97;4.65;;;10.90;99.90;;;11.35;100.00;100938.19;4805848;29;20057;-63
2023/11/08 07:24:15;;;;;;;8.10;4.22;;;11.10;99.90;;;11.46;100.00;100939.88;4805805;29;20047;-62
2023/11/08 07:26:46;;;;;;;7.22;4.07;;;11.20;99.90;;;11.57;99.45;100945.09;4805779;29;20258;-63
2023/11/08 07:29:16;;;;;;;8.45;4.40;;;11.30;99.90;;;11.72;99.02;100940.63;4805620;29;20057;-63
2023/11/08 07:31:45;;;;;;;7.35;3.95;;;11.40;99.90;;;11.69;97.92;100947.72;4805809;29;20492;-63
2023/11/08 07:34:14;;;;;;;9.48;4.63;;;11.50;99.90;;;11.90;97.44;100944.00;4805586;29;20055;-63
2023/11/08 07:36:43;;;;;;;9.63;4.28;;;11.60;99.90;;;12.06;96.51;100954.44;4805755;29;20054;-63
2023/11/08 07:39:15;;;;;;;8.00;4.70;;;11.80;99.90;;;12.22;95.60;100937.50;4805695;29;20051;-63
2023/11/08 07:41:55;;;;;;;12.95;4.75;;;12.00;99.90;;;12.36;94.90;100962.13;4805701;29;20047;-63
2023/11/08 07:44:25;;;;;;;9.40;4.88;;;12.10;99.90;;;12.43;93.87;100958.50;4805764;29;20142;-63
2023/11/08 07:46:53;;;;;;;9.57;4.90;;;12.20;99.90;;;12.47;93.45;100959.31;4820095;29;20467;-63
2023/11/08 07:49:21;;;;;;;6.82;4.65;;;12.20;99.90;;;12.54;93.07;100961.03;4805501;29;20445;-63
2023/11/08 07:51:51;;;;;;;9.63;4.20;;;12.30;99.90;;;12.50;93.03;100967.28;4805426;29;20149;-63
2023/11/08 07:54:20;;;;;;;7.93;4.90;;;12.30;99.90;;;12.47;92.89;100943.41;4819395;29;20149;-63
2023/11/08 07:56:48;;;;;;;9.25;4.38;;;12.20;99.90;;;12.34;92.43;100958.59;4805377;29;20134;-63
2023/11/08 07:59:17;;;;;;;11.75;3.97;;;12.10;99.90;;;12.22;93.33;100956.06;4805285;29;20062;-63
2023/11/08 08:01:47;;;;;;;8.93;4.07;;;12.00;99.90;;;12.16;93.54;100952.56;4805232;29;20080;-63
2023/11/08 08:04:16;;;;;;;11.73;4.68;;;12.00;99.90;;;12.07;94.08;100965.94;4805495;29;20054;-62
2023/11/08 08:06:44;;;;;;;10.05;4.22;;;11.80;99.90;;;12.07;94.46;100940.31;4805037;29;20066;-63
2023/11/08 08:09:15;;;;;;;8.57;4.15;;;11.80;99.90;;;11.89;94.74;100947.53;4805395;29;20051;-63
2023/11/08 08:11:45;;;;;;;6.55;4.40;;;11.70;99.90;;;11.90;95.59;100944.00;4805581;29;20054;-62
2023/11/08 08:14:14;;;;;;;8.45;4.15;;;11.70;99.90;;;11.59;95.93;100907.09;4805772;29;20047;-61
2023/11/08 08:16:43;;;;;;;10.65;4.40;;;11.50;99.90;;;11.72;96.58;100943.25;4805208;29;20046;-62
2023/11/08 08:19:13;;;;;;;8.90;4.65;;;11.50;99.90;;;11.76;96.94;100957.34;4805239;29;20123;-62
2023/11/08 08:21:44;;;;;;;10.23;4.30;;;11.50;99.90;;;11.66;97.22;100935.34;4805557;29;20058;-62
2023/11/08 08:24:14;;;;;;;10.52;4.57;;;11.40;99.90;;;11.64;97.83;100937.09;4805539;29;20054;-62
2023/11/08 08:26:46;;;;;;;8.65;4.18;;;11.40;99.90;;;11.51;98.08;100930.16;4808876;29;20053;-63
2023/11/08 08:29:14;;;;;;;12.55;4.95;;;11.40;99.90;;;11.37;98.46;100941.72;4808823;29;20070;-62
2023/11/08 08:31:43;;;;;;;9.23;4.45;;;11.30;99.90;;;11.52;98.86;100946.91;4808431;29;20432;-63
2023/11/08 08:34:14;;;;;;;11.55;4.50;;;11.30;99.90;;;11.50;99.02;100941.63;4808580;29;20058;-63
2023/11/08 08:36:54;;;;;;;8.85;4.60;;;11.30;99.90;;;11.49;99.20;100946.94;4808569;29;20053;-63
2023/11/08 08:39:27;;;;;;;12.63;4.65;;;11.30;99.90;;;11.64;99.31;100938.88;4808900;29;20078;-62
2023/11/08 08:41:58;;;;;;;9.57;4.65;;;11.40;99.90;;;11.59;98.45;100943.34;4821995;29;20197;-63
2023/11/08 08:44:26;;;;;;;12.55;5.22;;;11.40;99.90;;;11.49;98.39;100947.81;4808644;29;20059;-63
2023/11/08 08:46:55;;;;;;;15.02;5.13;;;11.40;99.90;;;11.49;98.63;100931.03;4808341;29;20062;-62
2023/11/08 08:49:25;;;;;;;10.07;5.28;;;11.30;99.90;;;11.45;98.84;100938.13;4808386;29;20074;-63
2023/11/08 08:51:54;;;;;;;13.02;5.13;;;11.30;99.90;;;11.41;99.04;100946.09;4808392;29;20050;-63
2023/11/08 08:54:22;;;;;;;11.20;5.00;;;11.20;99.90;;;11.39;99.47;100951.41;4808257;29;20458;-63
2023/11/08 08:56:51;;;;;;;14.50;5.15;;;11.10;99.90;;;11.42;99.49;100932.84;4808126;29;20047;-62
2023/11/08 08:59:20;;;;;;;14.38;5.47;;;11.20;99.90;;;11.39;99.93;100922.28;4806881;29;20054;-62
2023/11/08 09:01:48;;;;;;;12.93;5.20;;;11.20;99.90;;;11.35;100.00;100935.53;4808144;29;20111;-64
2023/11/08 09:04:16;;;;;;;15.95;5.80;;;11.10;99.90;;;11.34;100.00;100941.75;4808052;29;20043;-64
2023/11/08 09:06:46;;;;;;;14.95;5.30;;;11.10;99.90;;;11.33;100.00;100947.91;4807927;29;20577;-64
2023/11/08 09:09:15;;;;;;;16.07;6.07;;;11.10;99.90;;;11.37;100.00;100958.50;4808064;29;20051;-63
2023/11/08 09:11:44;;;;;;;17.10;5.28;;;11.10;99.90;;;11.35;100.00;100947.03;4808029;29;20399;-64
2023/11/08 09:14:14;;;;;;;13.07;5.28;;;11.10;99.90;;;11.30;100.00;100940.00;4807932;29;20047;-64
2023/11/08 09:16:42;;;;;;;14.32;5.65;;;11.10;99.90;;;11.24;100.00;100943.56;4808019;29;20421;-64
2023/11/08 09:19:11;;;;;;;18.75;6.38;;;11.00;99.90;;;11.24;100.00;100934.75;4807848;29;20055;-62
2023/11/08 09:21:40;;;;;;;13.82;5.75;;;11.00;99.90;;;11.26;100.00;100922.38;4807860;29;20068;-63
2023/11/08 09:24:10;;;;;;;16.42;6.38;;;11.00;99.90;;;11.34;100.00;100934.66;4807846;29;20047;-63
2023/11/08 09:26:40;;;;;;;17.80;6.32;;;11.10;99.90;;;11.18;100.00;100890.66;4807840;29;20054;-62
2023/11/08 09:29:09;;;;;;;19.90;6.25;;;11.10;99.90;;;11.27;100.00;100945.28;4807765;29;20055;-64
2023/11/08 09:31:38;;;;;;;16.75;5.95;;;11.10;99.90;;;11.36;100.00;100910.84;4807734;29;20051;-62
2023/11/08 09:34:07;;;;;;;15.25;5.82;;;11.20;99.90;;;11.54;99.27;100902.72;4821432;29;20082;-62
2023/11/08 09:36:36;;;;;;;14.50;5.97;;;11.30;99.90;;;11.88;98.27;100916.63;4807158;29;20065;-63
2023/11/08 09:39:11;;;;;;;22.67;6.38;;;11.60;99.90;;;12.34;98.24;100933.84;4807803;29;20160;-64
2023/11/08 09:41:39;;;;;;;13.13;5.95;;;12.00;99.90;;;12.72;96.44;100926.31;4807634;29;20070;-64
2023/11/08 09:44:08;;;;;;;23.05;6.35;;;12.40;99.90;;;12.77;93.20;100934.22;4807498;29;20081;-64
2023/11/08 09:46:38;;;;;;;13.10;5.85;;;12.60;99.90;;;12.62;91.98;100893.69;4807265;29;20050;-66
2023/11/08 09:49:06;;;;;;;10.73;5.33;;;12.60;99.90;;;12.76;91.08;100936.00;4806453;29;20067;-65
2023/11/08 09:51:35;;;;;;;16.48;5.57;;;12.60;99.90;;;12.54;89.41;100918.59;4821345;29;20311;-65
2023/11/08 09:54:04;;;;;;;14.00;5.68;;;12.40;99.90;;;12.48;90.03;100946.06;4807269;29;20059;-65
2023/11/08 09:56:35;;;;;;;16.98;6.43;;;12.30;99.90;;;12.44;90.07;100908.97;4806067;29;20062;-64
2023/11/08 09:59:04;;;;;;;13.27;5.38;;;12.20;99.90;;;12.45;89.61;100918.66;4807248;29;20055;-64
2023/11/08 10:01:37;;;;;;;16.10;6.35;;;12.20;99.90;;;12.55;89.55;100907.94;4821349;29;20070;-64
2023/11/08 10:04:10;;;;;;;20.63;6.00;;;12.30;99.90;;;12.81;90.10;100915.59;4807127;29;20504;-64
2023/11/08 10:06:39;;;;;;;18.80;6.32;;;12.50;99.90;;;12.96;88.91;100917.16;4807264;29;20069;-65
2023/11/08 10:09:08;;;;;;;18.25;5.85;;;12.70;99.90;;;12.94;88.31;100901.25;4807014;29;20454;-65
2023/11/08 10:11:40;;;;;;;16.13;5.82;;;12.70;99.90;;;13.00;87.72;100893.22;4807224;29;20049;-64
2023/11/08 10:14:09;;;;;;;13.73;5.72;;;12.80;99.90;;;12.89;87.70;100895.13;4805928;29;20054;-65